Time;durP1;ratioP1;P1;durP2;ratioP2;P2;SDS_P1;SDS_P2;PMS_P1;PMS_P2;Temp;Humidity;BMP_temperature;BMP_pressure;BME280_temperature;BME280_humidity;BME280_pressure;Samples;Min_cycle;Max_cycle;Signal;HPM_P1;HPM_P2
2022/12/27 00:02:24;;;;;;;10.90;7.20;;;;;;;11.99;72.78;100998.47;105631;1309;21970;-60
2022/12/27 00:04:50;;;;;;;10.60;7.70;;;;;;;12.10;72.43;100995.94;105635;1310;21963;-65
2022/12/27 00:07:16;;;;;;;9.80;7.50;;;;;;;12.09;72.71;100993.48;105605;1303;22009;-62
2022/12/27 00:09:43;;;;;;;9.90;6.90;;;;;;;12.04;73.41;100991.41;105752;1309;21963;-65
2022/12/27 00:12:09;;;;;;;15.90;9.30;;;;;;;12.15;72.75;100995.89;105616;1307;21972;-65
2022/12/27 00:14:35;;;;;;;14.50;9.90;;;;;;;12.22;72.52;100990.55;105643;1307;22076;-65
2022/12/27 00:17:03;;;;;;;12.70;8.50;;;;;;;12.24;72.38;100988.42;105625;1307;21972;-65
2022/12/27 00:19:28;;;;;;;13.50;7.60;;;;;;;12.27;72.20;100984.70;105656;1311;21964;-65
2022/12/27 00:21:54;;;;;;;12.90;8.20;;;;;;;12.21;72.71;100983.52;105620;1295;21972;-65
2022/12/27 00:24:20;;;;;;;11.80;8.10;;;;;;;12.26;72.39;100982.59;105603;1309;21970;-60
2022/12/27 00:26:46;;;;;;;10.20;7.80;;;;;;;12.19;72.78;100980.38;105726;1309;21971;-61
2022/12/27 00:29:11;;;;;;;11.70;7.30;;;;;;;12.15;73.25;100979.17;105669;1307;21975;-61
2022/12/27 00:31:37;;;;;;;12.70;8.00;;;;;;;12.23;73.03;100969.25;105688;1307;21963;-65
2022/12/27 00:34:06;;;;;;;11.20;7.30;;;;;;;12.20;73.26;100968.74;105673;1307;21970;-64
2022/12/27 00:36:31;;;;;;;12.70;7.80;;;;;;;12.40;72.51;100969.27;105680;1308;21964;-65
2022/12/27 00:38:57;;;;;;;14.30;7.30;;;;;;;12.31;73.03;100964.42;105652;1307;23099;-60
2022/12/27 00:41:23;;;;;;;10.40;7.30;;;;;;;12.34;72.92;100960.88;106631;1306;22004;-65
2022/12/27 00:43:49;;;;;;;13.40;8.20;;;;;;;12.28;73.12;100966.73;105633;1307;21987;-65
2022/12/27 00:46:14;;;;;;;11.20;7.80;;;;;;;12.33;72.93;100968.62;105627;1307;21963;-61
2022/12/27 00:48:40;;;;;;;12.30;7.50;;;;;;;12.37;72.81;100968.23;105610;1307;21963;-60
2022/12/27 00:51:07;;;;;;;10.70;7.60;;;;;;;12.36;73.14;100964.38;105612;1307;21957;-66
2022/12/27 00:53:34;;;;;;;10.90;7.90;;;;;;;12.45;72.82;100960.05;105662;1311;21970;-61
2022/12/27 00:55:59;;;;;;;12.60;7.00;;;;;;;12.49;72.28;100952.09;105639;1310;21962;-62
2022/12/27 00:58:27;;;;;;;10.40;7.40;;;;;;;12.55;72.08;100946.75;105632;1303;21976;-65
2022/12/27 01:00:53;;;;;;;11.60;7.10;;;;;;;12.50;72.42;100950.48;105696;1307;21976;-61
2022/12/27 01:03:19;;;;;;;11.50;7.50;;;;;;;12.44;73.02;100940.34;105659;1308;21956;-61
2022/12/27 01:05:46;;;;;;;12.00;6.70;;;;;;;12.45;72.78;100923.62;105612;1308;21970;-61
2022/12/27 01:08:12;;;;;;;11.50;7.90;;;;;;;12.51;72.27;100917.39;105662;1306;21958;-61
2022/12/27 01:10:39;;;;;;;8.80;6.20;;;;;;;12.55;72.22;100915.77;105647;1307;21973;-61
2022/12/27 01:13:05;;;;;;;9.70;6.70;;;;;;;12.50;72.64;100910.72;105686;1307;21975;-65
2022/12/27 01:15:30;;;;;;;12.80;7.80;;;;;;;12.39;73.21;100916.30;105643;1306;21976;-61
2022/12/27 01:17:56;;;;;;;10.90;7.50;;;;;;;12.38;73.22;100913.85;105616;1307;21966;-65
2022/12/27 01:20:22;;;;;;;11.30;7.50;;;;;;;12.48;72.56;100909.51;105631;1303;22030;-65
2022/12/27 01:22:48;;;;;;;9.50;7.00;;;;;;;12.52;72.49;100898.20;105626;1306;21978;-66
2022/12/27 01:25:14;;;;;;;11.50;7.70;;;;;;;12.47;72.53;100891.39;105667;1307;21987;-61
2022/12/27 01:27:40;;;;;;;10.50;7.80;;;;;;;12.37;73.21;100879.37;105682;1305;21960;-62
2022/12/27 01:30:06;;;;;;;13.20;8.10;;;;;;;12.44;72.77;100872.95;105652;1307;21972;-65
2022/12/27 01:32:32;;;;;;;13.40;8.70;;;;;;;12.31;73.29;100875.55;105616;1307;21983;-65
2022/12/27 01:34:59;;;;;;;10.90;8.00;;;;;;;12.41;72.97;100867.52;105773;1306;21973;-65
2022/12/27 01:37:27;;;;;;;12.20;8.30;;;;;;;12.40;72.92;100862.44;105725;1307;21959;-64
2022/12/27 01:39:53;;;;;;;12.60;8.20;;;;;;;12.48;72.45;100859.16;105765;1293;22015;-62
2022/12/27 01:45:31;;;;;;;12.80;7.60;;;;;;;12.39;72.78;100851.17;105694;1306;21994;-65
2022/12/27 01:47:57;;;;;;;13.40;7.70;;;;;;;12.44;72.45;100847.95;105681;1306;21965;-60
2022/12/27 01:50:30;;;;;;;13.50;7.80;;;;;;;12.30;72.91;100850.77;105738;1306;21958;-61
2022/12/27 01:53:07;;;;;;;14.00;8.10;;;;;;;12.33;72.84;100852.48;105771;1306;21985;-64
2022/12/27 01:55:53;;;;;;;12.00;8.40;;;;;;;12.42;72.54;100847.80;105704;1306;21966;-61
2022/12/27 01:58:30;;;;;;;12.00;8.40;;;;;;;12.31;73.08;100841.60;105729;1307;21963;-61
2022/12/27 02:00:56;;;;;;;12.20;8.20;;;;;;;12.40;72.41;100844.65;105758;1307;21967;-65
2022/12/27 02:03:36;;;;;;;11.50;7.30;;;;;;;12.47;72.15;100845.80;105729;1310;21960;-65
2022/12/27 02:06:05;;;;;;;11.80;7.00;;;;;;;12.53;71.89;100844.86;105682;1310;23119;-61
2022/12/27 02:08:36;;;;;;;11.30;7.80;;;;;;;12.57;71.73;100841.45;105681;1311;21963;-65
2022/12/27 02:11:04;;;;;;;12.60;8.10;;;;;;;12.57;71.76;100837.59;105680;1307;21971;-65
2022/12/27 02:13:31;;;;;;;10.00;7.50;;;;;;;12.58;71.68;100828.23;105691;1307;22003;-65
2022/12/27 02:15:57;;;;;;;9.70;6.90;;;;;;;12.58;71.58;100831.41;105693;1307;21966;-65
2022/12/27 02:18:23;;;;;;;12.30;7.30;;;;;;;12.58;71.72;100829.30;105696;1302;22030;-61
2022/12/27 02:21:07;;;;;;;13.30;7.90;;;;;;;12.65;71.11;100821.97;105613;1310;21968;-61
2022/12/27 02:26:34;;;;;;;11.20;7.90;;;;;;;12.56;71.28;100833.71;105665;1307;21963;-64
2022/12/27 02:29:25;;;;;;;13.30;7.90;;;;;;;12.56;71.32;100838.30;105680;1307;21974;-64
2022/12/27 02:32:22;;;;;;;10.50;7.40;;;;;;;12.58;71.11;100842.15;105630;1306;21971;-60
2022/12/27 02:35:12;;;;;;;14.40;9.10;;;;;;;12.61;70.96;100843.14;105654;1307;21982;-64
2022/12/27 02:37:42;;;;;;;20.40;10.20;;;;;;;12.60;70.79;100845.80;105689;1308;21981;-64
2022/12/27 02:54:32;;;;;;;13.10;8.40;;;;;;;12.63;70.42;100850.52;105689;1307;21977;-60
2022/12/27 02:57:15;;;;;;;10.80;8.20;;;;;;;12.62;70.37;100847.70;105654;1307;23612;-60
2022/12/27 03:03:29;;;;;;;13.00;7.70;;;;;;;12.60;69.88;100842.81;105671;1307;21970;-61
2022/12/27 03:06:41;;;;;;;11.50;7.50;;;;;;;12.56;69.95;100836.02;105692;1306;22027;-61
2022/12/27 03:15:54;;;;;;;12.10;8.50;;;;;;;12.70;68.99;100822.08;105700;1307;21969;-61
2022/12/27 03:18:35;;;;;;;10.40;7.70;;;;;;;12.79;68.27;100821.07;105721;1306;21960;-65
2022/12/27 03:26:31;;;;;;;12.00;8.30;;;;;;;12.78;67.86;100814.59;105670;1306;22006;-65
2022/12/27 03:34:38;;;;;;;14.20;8.80;;;;;;;12.77;67.74;100807.03;105656;1307;22015;-61
2022/12/27 03:40:00;;;;;;;10.30;7.40;;;;;;;12.75;67.79;100804.41;105605;1307;21964;-65
2022/12/27 03:45:10;;;;;;;14.80;8.80;;;;;;;12.73;67.57;100807.27;105659;1306;21962;-64
2022/12/27 03:47:47;;;;;;;12.10;7.60;;;;;;;12.69;67.64;100803.98;105612;1306;21973;-63
2022/12/27 03:50:17;;;;;;;11.30;8.10;;;;;;;12.67;67.62;100803.99;105727;1304;21992;-61
2022/12/27 03:52:53;;;;;;;12.40;8.20;;;;;;;12.61;67.51;100808.29;105633;1306;21984;-65
2022/12/27 03:55:19;;;;;;;13.10;7.50;;;;;;;12.62;67.45;100808.10;105633;1307;21965;-61
2022/12/27 03:57:45;;;;;;;13.00;8.10;;;;;;;12.62;67.43;100801.77;105681;1307;22426;-61
2022/12/27 04:00:11;;;;;;;11.00;7.30;;;;;;;12.63;67.55;100796.12;105593;1307;21969;-65
2022/12/27 04:02:37;;;;;;;11.70;7.90;;;;;;;12.65;67.49;100791.52;105746;1302;22011;-65
2022/12/27 04:05:05;;;;;;;14.50;8.50;;;;;;;12.66;67.45;100785.70;105667;1306;21957;-62
2022/12/27 04:07:31;;;;;;;11.70;8.00;;;;;;;12.66;67.18;100780.59;105710;1306;21966;-62
2022/12/27 04:37:12;;;;;;;11.60;7.60;;;;;;;12.67;66.62;100763.15;105708;1305;21986;-65
2022/12/27 04:39:38;;;;;;;;;;;;;;;12.68;66.47;100756.09;105672;1306;21957;-61
2022/12/27 04:55:58;;;;;;;12.70;7.70;;;;;;;12.63;66.53;100744.71;104899;1302;1002569;-65
2022/12/27 04:58:24;;;;;;;11.20;7.20;;;;;;;12.62;66.48;100744.90;105820;1306;23096;-61
2022/12/27 05:03:35;;;;;;;13.30;7.90;;;;;;;12.64;66.41;100739.77;105681;1306;21975;-62
2022/12/27 05:06:02;;;;;;;13.70;7.90;;;;;;;12.65;66.51;100732.55;105692;1306;22203;-62
2022/12/27 05:14:01;;;;;;;11.80;7.80;;;;;;;12.59;66.64;100733.86;105683;1306;22192;-63
2022/12/27 05:16:28;;;;;;;12.70;7.40;;;;;;;12.56;66.63;100734.26;105731;1306;21963;-66
2022/12/27 05:18:53;;;;;;;10.80;7.80;;;;;;;12.56;66.73;100735.32;105790;1306;22083;-62
2022/12/27 05:21:19;;;;;;;11.60;8.10;;;;;;;12.63;66.64;100730.63;105713;1306;22216;-64
2022/12/27 05:26:32;;;;;;;12.60;7.90;;;;;;;12.65;66.49;100724.63;105718;1292;21983;-67
2022/12/27 05:28:58;;;;;;;12.00;8.20;;;;;;;12.69;66.51;100721.20;105759;1294;21961;-62
2022/12/27 05:31:25;;;;;;;12.20;7.60;;;;;;;12.75;66.62;100721.66;105684;1305;21994;-67
2022/12/27 05:33:53;;;;;;;10.80;6.80;;;;;;;12.78;66.73;100714.56;105669;1307;23696;-61
2022/12/27 05:36:20;;;;;;;14.40;9.10;;;;;;;12.77;66.60;100710.54;105799;1306;23715;-61
2022/12/27 05:38:45;;;;;;;18.90;10.60;;;;;;;12.74;66.55;100705.83;105750;1306;21953;-62
2022/12/27 05:41:14;;;;;;;15.90;9.60;;;;;;;12.75;66.67;100704.05;105757;1293;21992;-62
2022/12/27 05:43:40;;;;;;;10.60;7.70;;;;;;;12.71;66.52;100702.70;105650;1306;21973;-67
2022/12/27 05:46:11;;;;;;;13.90;8.20;;;;;;;12.74;66.58;100700.89;105707;1297;21961;-62
2022/12/27 05:48:37;;;;;;;10.80;8.10;;;;;;;12.75;66.46;100698.95;105708;1306;22740;-61
2022/12/27 05:51:09;;;;;;;12.00;8.30;;;;;;;12.76;66.60;100695.92;105701;1306;22417;-63
2022/12/27 05:53:35;;;;;;;9.60;7.10;;;;;;;12.75;66.47;100701.41;105785;1306;22011;-68
2022/12/27 05:56:01;;;;;;;12.40;7.60;;;;;;;12.74;66.36;100699.13;105602;1306;22090;-68
2022/12/27 05:58:27;;;;;;;11.50;6.60;;;;;;;12.77;66.49;100696.61;105773;1306;21975;-62
2022/12/27 06:00:55;;;;;;;12.20;8.20;;;;;;;12.79;66.36;100700.11;105829;1306;21977;-67
2022/12/27 06:03:22;;;;;;;10.30;7.10;;;;;;;12.75;66.36;100694.89;105658;1301;23133;-61
2022/12/27 06:05:51;;;;;;;11.30;7.20;;;;;;;12.72;66.29;100695.64;105741;1306;21971;-68
2022/12/27 06:08:17;;;;;;;12.40;7.40;;;;;;;12.76;66.28;100700.88;105806;1306;21966;-61
2022/12/27 06:10:44;;;;;;;14.70;8.90;;;;;;;12.71;66.44;100698.11;105975;1306;21966;-66
2022/12/27 06:13:11;;;;;;;9.60;6.50;;;;;;;12.71;66.50;100698.81;105883;1306;21967;-64
2022/12/27 06:15:38;;;;;;;9.30;7.00;;;;;;;12.71;66.40;100699.18;105847;1306;21959;-61
2022/12/27 06:18:05;;;;;;;10.90;7.40;;;;;;;12.73;66.48;100698.96;105789;1305;21986;-62
2022/12/27 06:20:31;;;;;;;12.50;7.90;;;;;;;12.80;66.41;100699.73;105876;1306;23158;-61
2022/12/27 06:22:58;;;;;;;12.40;7.70;;;;;;;12.84;66.41;100692.80;105900;1306;22033;-67
2022/12/27 06:25:24;;;;;;;11.20;7.70;;;;;;;12.88;66.19;100692.21;105898;1302;21977;-61
2022/12/27 06:27:50;;;;;;;12.90;7.50;;;;;;;12.86;66.37;100689.23;105943;1300;21985;-66
2022/12/27 06:30:16;;;;;;;12.60;7.50;;;;;;;12.89;66.35;100687.77;105854;1306;21974;-66
2022/12/27 06:32:41;;;;;;;13.50;6.90;;;;;;;12.94;66.36;100677.14;105858;1305;22030;-66
2022/12/27 06:35:09;;;;;;;10.40;7.20;;;;;;;12.99;66.30;100674.59;105953;1302;22426;-66
2022/12/27 06:37:36;;;;;;;14.10;7.80;;;;;;;13.04;66.25;100673.10;105837;1296;21978;-66
2022/12/27 06:40:02;;;;;;;11.70;7.00;;;;;;;13.07;66.33;100669.86;105921;1298;21979;-66
2022/12/27 06:42:29;;;;;;;12.20;7.30;;;;;;;13.11;66.22;100667.50;105891;1304;21986;-67
2022/12/27 06:44:54;;;;;;;12.00;7.80;;;;;;;13.17;66.20;100664.94;105883;1305;22074;-67
2022/12/27 06:47:20;;;;;;;10.90;7.10;;;;;;;13.19;65.95;100667.18;105817;1305;21968;-66
2022/12/27 06:49:46;;;;;;;14.30;7.40;;;;;;;13.18;65.73;100661.74;102932;1304;1002971;-61
2022/12/27 06:52:14;;;;;;;13.70;7.00;;;;;;;13.20;65.71;100662.75;105895;1306;21968;-61
2022/12/27 06:54:40;;;;;;;9.40;6.40;;;;;;;13.21;65.58;100659.21;105828;1306;21957;-60
2022/12/27 06:57:06;;;;;;;10.60;7.20;;;;;;;13.22;65.35;100648.64;105848;1306;21971;-67
2022/12/27 06:59:33;;;;;;;11.70;6.60;;;;;;;13.21;65.31;100648.46;105901;1306;21955;-61
2022/12/27 07:01:59;;;;;;;10.20;7.10;;;;;;;13.27;65.37;100645.70;105830;1306;21979;-61
2022/12/27 07:04:25;;;;;;;10.90;6.50;;;;;;;13.28;65.27;100643.39;105845;1305;21952;-67
2022/12/27 07:06:51;;;;;;;10.40;7.10;;;;;;;13.28;65.05;100643.41;105912;1305;22062;-67
2022/12/27 07:09:17;;;;;;;9.20;6.10;;;;;;;13.30;65.22;100639.14;105807;1306;21964;-61
2022/12/27 07:11:44;;;;;;;10.10;6.20;;;;;;;13.32;65.04;100638.73;105771;1305;21976;-60
2022/12/27 07:14:10;;;;;;;13.00;6.70;;;;;;;13.38;65.14;100636.70;105828;1306;21961;-60
2022/12/27 07:16:37;;;;;;;12.20;6.70;;;;;;;13.42;64.96;100637.87;105938;1305;21970;-60
2022/12/27 07:19:04;;;;;;;13.30;7.20;;;;;;;13.40;64.77;100640.17;105603;1302;441433;-60
2022/12/27 07:21:30;;;;;;;10.10;6.80;;;;;;;13.40;64.95;100646.70;105902;1306;21985;-60
2022/12/27 07:23:56;;;;;;;10.40;6.50;;;;;;;13.42;65.27;100652.50;105804;1301;22000;-60
2022/12/27 07:26:25;;;;;;;10.90;7.00;;;;;;;13.47;65.30;100652.23;105787;1305;22038;-66
2022/12/27 07:28:55;;;;;;;11.30;7.00;;;;;;;13.52;65.16;100644.90;105840;1306;21964;-61
2022/12/27 07:31:22;;;;;;;11.10;6.60;;;;;;;13.59;65.46;100642.64;105851;1305;21966;-60
2022/12/27 07:33:49;;;;;;;10.00;6.30;;;;;;;13.66;65.53;100640.55;105866;1302;21976;-61
2022/12/27 07:36:16;;;;;;;12.90;7.00;;;;;;;13.71;65.38;100641.52;105788;1306;21975;-60
2022/12/27 07:38:42;;;;;;;30.50;14.90;;;;;;;13.75;65.57;100644.42;105643;1306;21960;-60
2022/12/27 07:41:09;;;;;;;26.30;15.40;;;;;;;13.77;65.19;100650.58;105786;1301;21966;-66
2022/12/27 07:43:36;;;;;;;20.10;13.20;;;;;;;13.82;65.48;100654.34;105837;1306;22023;-61
2022/12/27 07:46:08;;;;;;;17.20;10.70;;;;;;;13.85;65.47;100653.57;105889;1305;21963;-68
2022/12/27 07:48:35;;;;;;;10.90;7.30;;;;;;;13.90;65.25;100661.41;105831;1306;23097;-62
2022/12/27 07:51:00;;;;;;;11.90;7.40;;;;;;;13.91;64.86;100667.38;105809;1306;21970;-68
2022/12/27 07:53:26;;;;;;;12.60;7.60;;;;;;;13.89;64.38;100668.99;105820;1306;21975;-67
2022/12/27 07:55:52;;;;;;;11.70;8.40;;;;;;;13.90;64.33;100669.85;105778;1306;21972;-68
2022/12/27 07:58:19;;;;;;;12.00;7.70;;;;;;;13.89;64.48;100669.35;105781;1305;21972;-61
2022/12/27 08:00:45;;;;;;;10.90;7.00;;;;;;;13.91;64.35;100671.43;105833;1305;21976;-67
2022/12/27 08:03:11;;;;;;;10.50;6.60;;;;;;;13.90;64.55;100670.39;105875;1302;21966;-67
2022/12/27 08:05:48;;;;;;;12.30;6.90;;;;;;;14.02;64.54;100667.84;105791;1305;22014;-67
2022/12/27 08:08:15;;;;;;;11.50;8.00;;;;;;;14.08;64.37;100665.61;105827;1306;23093;-68
2022/12/27 08:10:41;;;;;;;11.00;6.60;;;;;;;14.10;64.10;100664.85;105824;1305;21971;-68
2022/12/27 08:13:07;;;;;;;10.90;7.50;;;;;;;14.12;64.13;100662.51;105848;1306;21960;-61
2022/12/27 08:15:32;;;;;;;10.60;7.00;;;;;;;14.14;64.11;100661.39;105887;1302;21983;-64
2022/12/27 08:17:58;;;;;;;10.20;6.80;;;;;;;14.05;64.00;100660.37;105711;1306;21977;-68
2022/12/27 08:20:24;;;;;;;10.50;7.20;;;;;;;14.03;64.42;100657.77;105866;1306;21964;-61
2022/12/27 08:22:50;;;;;;;10.40;6.20;;;;;;;14.06;64.51;100660.70;105830;1304;22023;-68
2022/12/27 08:25:16;;;;;;;10.10;6.70;;;;;;;14.08;64.42;100660.48;105796;1306;21974;-61
2022/12/27 08:27:41;;;;;;;11.50;7.10;;;;;;;14.12;64.63;100658.45;105849;1305;21958;-68
2022/12/27 08:30:08;;;;;;;15.60;7.60;;;;;;;14.16;64.69;100655.18;105843;1305;21984;-68
2022/12/27 08:32:33;;;;;;;10.10;6.40;;;;;;;14.17;64.61;100659.73;105821;1305;21962;-68
2022/12/27 08:34:59;;;;;;;9.50;6.60;;;;;;;14.16;64.19;100661.36;105832;1301;21975;-68
2022/12/27 08:37:25;;;;;;;10.10;7.20;;;;;;;14.14;63.93;100659.98;105830;1306;21976;-68
2022/12/27 08:39:50;;;;;;;13.60;7.10;;;;;;;14.16;64.27;100651.64;105793;1305;22203;-68
2022/12/27 08:42:17;;;;;;;11.00;6.80;;;;;;;14.21;64.50;100649.59;105833;1305;21972;-69
2022/12/27 08:44:43;;;;;;;9.70;7.00;;;;;;;14.25;64.40;100643.67;106013;1306;21979;-69
2022/12/27 08:47:08;;;;;;;12.20;7.70;;;;;;;14.29;64.24;100640.41;105813;1306;21957;-69
2022/12/27 08:49:36;;;;;;;12.20;7.40;;;;;;;14.31;64.05;100634.01;105815;1306;21976;-69
2022/12/27 08:52:03;;;;;;;10.30;6.90;;;;;;;14.35;64.19;100632.15;105826;1305;21985;-68
2022/12/27 08:54:29;;;;;;;13.80;7.20;;;;;;;14.41;64.47;100634.29;105873;1306;21981;-68
2022/12/27 08:56:54;;;;;;;10.50;7.20;;;;;;;14.49;64.78;100633.92;105819;1304;21981;-68
2022/12/27 08:59:20;;;;;;;12.90;7.80;;;;;;;14.52;64.85;100627.34;105854;1301;22137;-69
2022/12/27 09:01:46;;;;;;;13.20;7.60;;;;;;;14.53;64.51;100619.89;105832;1305;22011;-69
2022/12/27 09:04:12;;;;;;;11.80;7.80;;;;;;;14.57;63.92;100615.02;105846;1306;22001;-69
2022/12/27 09:06:39;;;;;;;9.20;6.70;;;;;;;14.58;64.06;100619.04;105854;1305;21964;-69
2022/12/27 09:09:05;;;;;;;11.90;7.20;;;;;;;14.56;63.37;100624.78;105888;1306;21975;-69
2022/12/27 09:11:32;;;;;;;11.60;7.40;;;;;;;14.53;63.43;100628.02;105828;1306;21993;-69
2022/12/27 09:14:00;;;;;;;9.70;6.50;;;;;;;14.53;63.58;100628.91;105860;1306;21975;-69
2022/12/27 09:16:26;;;;;;;10.80;7.40;;;;;;;14.55;63.82;100626.02;105166;1304;1002586;-69
2022/12/27 09:18:53;;;;;;;11.90;7.50;;;;;;;14.59;63.84;100618.33;105900;1306;21965;-62
2022/12/27 09:21:20;;;;;;;11.80;7.40;;;;;;;14.61;63.50;100609.98;105943;1306;23075;-68
2022/12/27 09:23:47;;;;;;;10.70;7.40;;;;;;;14.59;63.38;100596.95;105986;1306;22026;-62
2022/12/27 09:26:14;;;;;;;10.90;7.30;;;;;;;14.60;63.27;100587.23;105713;1306;21964;-68
2022/12/27 09:28:41;;;;;;;10.80;6.80;;;;;;;14.60;63.00;100580.84;105888;1301;21971;-61
2022/12/27 09:31:08;;;;;;;9.00;6.50;;;;;;;14.67;63.53;100575.21;105890;1305;21961;-69
2022/12/27 09:33:33;;;;;;;10.80;7.20;;;;;;;14.80;63.55;100571.02;105921;1306;21968;-62
2022/12/27 09:36:02;;;;;;;10.30;7.10;;;;;;;14.87;62.97;100567.64;105913;1301;21967;-68
2022/12/27 09:38:32;;;;;;;13.40;7.40;;;;;;;14.96;63.02;100563.68;106000;1305;23207;-62
2022/12/27 09:41:00;;;;;;;9.00;6.20;;;;;;;15.04;62.41;100555.88;105876;1305;21975;-69
2022/12/27 09:43:36;;;;;;;10.90;7.10;;;;;;;15.12;62.42;100549.83;105934;1306;21961;-69
2022/12/27 09:46:02;;;;;;;11.10;7.00;;;;;;;15.16;62.48;100550.05;105908;1306;21959;-62
2022/12/27 09:48:35;;;;;;;11.90;7.70;;;;;;;15.17;62.21;100547.55;105699;1302;21963;-69
2022/12/27 09:51:04;;;;;;;9.90;7.00;;;;;;;15.19;62.00;100546.26;105910;1305;21966;-69
2022/12/27 09:53:43;;;;;;;11.90;7.30;;;;;;;15.19;61.45;100549.62;105774;1306;21969;-69
2022/12/27 09:56:11;;;;;;;10.10;7.10;;;;;;;15.19;61.67;100550.16;105818;1306;23164;-68
2022/12/27 09:58:53;;;;;;;10.80;7.30;;;;;;;15.21;62.29;100547.97;105872;1306;21965;-68
2022/12/27 10:01:30;;;;;;;11.70;7.00;;;;;;;15.31;62.47;100545.75;105855;1306;21964;-60
2022/12/27 10:03:57;;;;;;;11.20;6.60;;;;;;;15.37;61.87;100544.50;105916;1294;22029;-60
2022/12/27 10:06:45;;;;;;;11.70;6.60;;;;;;;15.35;61.99;100548.99;105810;1306;21959;-61
2022/12/27 10:09:35;;;;;;;10.50;6.50;;;;;;;15.29;61.17;100555.71;105846;1305;21958;-61
2022/12/27 10:12:19;;;;;;;10.40;6.50;;;;;;;15.25;61.17;100558.45;105859;1306;21967;-68
2022/12/27 10:15:07;;;;;;;9.20;6.50;;;;;;;15.23;61.04;100554.62;105900;1305;21981;-68
2022/12/27 10:18:18;;;;;;;9.40;6.20;;;;;;;15.27;61.25;100553.27;105082;1306;1002509;-69
2022/12/27 11:11:35;;;;;;;20.60;13.70;;;;;;;12.04;92.15;100497.77;105068;1309;544313;-57
2022/12/27 11:14:10;;;;;;;20.80;14.30;;;;;;;13.33;78.21;100484.52;105459;1312;21973;-57
2022/12/27 11:16:36;;;;;;;56.70;37.20;;;;;;;13.82;73.56;100488.70;105537;1311;21978;-58
2022/12/27 11:19:02;;;;;;;49.00;33.60;;;;;;;14.07;71.79;100489.70;105288;1313;21973;-57
2022/12/27 11:21:27;;;;;;;23.60;17.50;;;;;;;14.24;70.73;100494.74;105294;1313;21975;-57
2022/12/27 11:24:00;;;;;;;16.70;11.00;;;;;;;14.36;69.43;100494.08;105354;1311;21974;-58
2022/12/27 11:26:39;;;;;;;12.00;8.90;;;;;;;14.43;68.68;100486.83;105486;1309;21990;-58
2022/12/27 11:29:05;;;;;;;15.00;11.10;;;;;;;14.45;68.59;100478.83;105535;1309;21983;-57
2022/12/27 11:31:36;;;;;;;17.80;10.50;;;;;;;14.49;68.63;100472.92;105314;1309;22055;-58
2022/12/27 13:07:40;;;;;;;21.90;16.80;;;;;;;10.19;96.36;100517.42;106165;1300;548223;-57
2022/12/27 13:10:45;;;;;;;23.50;16.60;;;;;;;13.59;80.96;100496.63;106478;1301;23562;-58
2022/12/27 13:13:30;;;;;;;19.40;13.90;;;;;;;14.03;76.85;100493.67;106145;1293;21952;-56
2022/12/27 13:16:17;;;;;;;30.90;22.70;;;;;;;14.26;74.98;100496.28;106162;1301;21970;-58
2022/12/27 13:19:11;;;;;;;21.00;15.30;;;;;;;14.40;73.87;100505.27;106018;1299;327026;-59
2022/12/27 13:22:02;;;;;;;19.90;12.60;;;;;;;14.52;73.08;100502.16;106406;1299;21963;-58
2022/12/27 13:24:50;;;;;;;17.30;11.20;;;;;;;14.59;72.01;100501.25;106330;1296;21951;-59
2022/12/27 13:27:39;;;;;;;17.00;12.20;;;;;;;14.67;71.19;100501.39;106382;1299;21953;-60
2022/12/27 13:30:24;;;;;;;24.30;18.10;;;;;;;14.72;70.63;100502.36;106235;1299;22001;-58
2022/12/27 13:33:35;;;;;;;35.20;25.10;;;;;;;14.74;70.20;100503.88;106419;1299;21957;-58
2022/12/27 13:36:19;;;;;;;24.30;17.80;;;;;;;14.72;69.83;100502.17;106316;1299;22005;-58
2022/12/27 13:38:55;;;;;;;19.90;13.70;;;;;;;14.72;69.82;100505.69;106341;1299;21996;-58
2022/12/27 13:41:27;;;;;;;17.30;12.20;;;;;;;14.74;69.45;100504.41;106393;1299;23694;-58
2022/12/27 13:44:33;;;;;;;17.50;13.30;;;;;;;14.76;69.25;100499.76;106349;1299;21957;-59
2022/12/27 13:47:11;;;;;;;17.80;13.80;;;;;;;14.75;69.28;100502.09;106429;1299;21970;-59
2022/12/27 13:50:14;;;;;;;20.70;15.50;;;;;;;14.76;69.25;100507.90;106383;1299;21952;-58
2022/12/27 13:53:06;;;;;;;23.50;14.70;;;;;;;14.76;68.98;100509.13;106362;1295;21981;-58
2022/12/27 13:55:43;;;;;;;18.00;13.80;;;;;;;14.77;68.83;100505.77;106276;1299;21973;-59
2022/12/27 13:58:43;;;;;;;18.20;13.80;;;;;;;14.78;68.56;100499.70;106393;1299;21968;-58
2022/12/27 14:01:28;;;;;;;21.60;15.40;;;;;;;14.78;68.34;100496.36;106566;1299;22434;-58
2022/12/27 14:04:31;;;;;;;19.80;16.20;;;;;;;14.78;68.00;100494.94;106278;1300;23075;-59
2022/12/27 14:07:21;;;;;;;30.30;20.70;;;;;;;14.80;67.93;100499.48;106296;1299;21960;-59
2022/12/27 14:10:35;;;;;;;33.60;21.90;;;;;;;14.81;67.83;100499.25;106329;1299;21971;-59
2022/12/27 14:13:06;;;;;;;38.90;26.20;;;;;;;14.84;67.68;100498.83;106377;1298;21964;-61
2022/12/27 14:15:41;;;;;;;37.80;24.10;;;;;;;14.84;67.65;100490.52;106366;1299;21946;-60
2022/12/27 14:18:23;;;;;;;38.40;25.00;;;;;;;14.82;67.83;100486.52;106289;1300;21963;-62
2022/12/27 14:21:11;;;;;;;44.60;25.80;;;;;;;14.84;68.02;100489.10;106386;1300;23715;-61
2022/12/27 14:24:14;;;;;;;30.30;20.30;;;;;;;14.88;68.06;100491.46;106452;1300;22080;-62
2022/12/27 14:26:57;;;;;;;27.40;18.80;;;;;;;14.93;68.02;100497.72;106383;1297;21965;-61
2022/12/27 14:29:27;;;;;;;23.10;18.00;;;;;;;14.95;67.72;100495.01;106377;1300;21978;-61
2022/12/27 14:32:06;;;;;;;25.90;16.60;;;;;;;14.93;66.92;100495.42;106292;1300;21966;-61
2022/12/27 14:35:02;;;;;;;21.20;16.10;;;;;;;14.85;66.48;100499.16;106285;1300;21962;-61
2022/12/27 14:37:37;;;;;;;22.60;15.80;;;;;;;14.75;66.58;100509.50;106472;1300;21980;-62
2022/12/27 14:40:11;;;;;;;22.30;15.90;;;;;;;14.67;66.68;100519.05;106449;1300;21974;-61
2022/12/27 14:43:25;;;;;;;22.60;16.30;;;;;;;14.61;66.37;100532.45;106391;1300;22197;-62
2022/12/27 14:46:36;;;;;;;22.30;16.70;;;;;;;14.52;66.21;100543.28;105970;1304;23447;-61
2022/12/27 14:49:32;;;;;;;24.00;16.90;;;;;;;14.35;66.06;100547.77;105705;1306;21959;-59
2022/12/27 14:52:13;;;;;;;20.70;14.90;;;;;;;14.12;65.91;100548.52;106809;1298;23461;-60
2022/12/27 14:55:01;;;;;;;19.90;14.50;;;;;;;14.05;65.92;100555.92;106593;1298;23612;-59
2022/12/27 14:57:33;;;;;;;19.80;15.30;;;;;;;14.02;66.01;100564.98;106708;1299;21957;-60
2022/12/27 15:00:15;;;;;;;18.50;14.20;;;;;;;13.93;66.34;100568.38;106704;1300;21973;-60
2022/12/27 15:02:59;;;;;;;19.20;14.60;;;;;;;13.84;66.41;100574.39;106569;1299;23054;-60
2022/12/27 15:05:35;;;;;;;23.30;15.40;;;;;;;13.79;66.47;100579.95;106678;1300;21958;-60
2022/12/27 15:08:02;;;;;;;19.50;14.30;;;;;;;13.81;66.57;100583.29;106742;1299;21951;-60
2022/12/27 15:10:34;;;;;;;18.60;14.50;;;;;;;13.83;66.50;100589.23;106675;1300;21969;-59
2022/12/27 15:13:10;;;;;;;22.10;15.90;;;;;;;13.82;66.42;100589.60;106610;1298;21966;-61
2022/12/27 15:16:04;;;;;;;23.60;17.20;;;;;;;13.81;66.29;100592.98;105783;1297;1002489;-60
2022/12/27 15:18:51;;;;;;;22.50;16.40;;;;;;;13.79;66.00;100597.78;106746;1300;22066;-60
2022/12/27 15:21:32;;;;;;;22.00;15.80;;;;;;;13.79;65.99;100599.00;106566;1299;21954;-60
2022/12/27 15:24:01;;;;;;;24.40;16.80;;;;;;;13.80;66.14;100599.16;106532;1300;21966;-60
2022/12/27 15:27:03;;;;;;;23.40;16.30;;;;;;;13.83;66.17;100602.63;106728;1299;21968;-60
2022/12/27 15:29:29;;;;;;;24.30;16.90;;;;;;;13.71;66.37;100596.36;106436;1300;21972;-60
2022/12/27 15:32:14;;;;;;;23.50;15.30;;;;;;;13.62;66.91;100595.69;106566;1300;21967;-60
2022/12/27 15:35:09;;;;;;;29.20;18.50;;;;;;;13.55;67.16;100593.20;106530;1300;21962;-60